Time;durP1;ratioP1;P1;durP2;ratioP2;P2;SDS_P1;SDS_P2;PMS_P1;PMS_P2;Temp;Humidity;BMP_temperature;BMP_pressure;BME280_temperature;BME280_humidity;BME280_pressure;Samples;Min_cycle;Max_cycle;Signal;HPM_P1;HPM_P2
2023/05/15 00:01:41;;;;;;;4.18;1.38;;;;;;;30.39;30.57;100109.41;7387109;19;20329;-84
2023/05/15 00:04:07;;;;;;;0.38;0.20;;;;;;;30.47;30.54;100118.66;7391493;19;20019;-84
2023/05/15 00:06:34;;;;;;;0.32;0.28;;;;;;;30.50;30.41;100111.66;7392206;19;20018;-87
2023/05/15 00:09:00;;;;;;;1.02;0.95;;;;;;;30.42;30.34;100108.22;7386777;19;20041;-91
2023/05/15 00:11:26;;;;;;;0.88;0.63;;;;;;;30.53;30.28;100107.56;7391432;19;20027;-90
2023/05/15 00:13:53;;;;;;;0.20;0.20;;;;;;;30.52;30.49;100108.94;7390091;19;20042;-89
2023/05/15 00:16:19;;;;;;;1.30;0.57;;;;;;;30.61;30.32;100099.53;7391107;19;20013;-94
2023/05/15 00:18:45;;;;;;;0.20;0.20;;;;;;;30.59;29.94;100114.53;7396133;19;20300;-94
2023/05/15 00:21:12;;;;;;;0.17;0.17;;;;;;;30.72;29.87;100110.38;7398128;19;20010;-93
2023/05/15 00:23:38;;;;;;;4.30;1.10;;;;;;;31.27;29.18;100112.13;7397814;19;20023;-90
2023/05/15 00:26:04;;;;;;;0.20;0.20;;;;;;;31.36;29.25;100109.16;7397548;19;20018;-95
2023/05/15 00:28:30;;;;;;;5.40;0.47;;;;;;;31.04;29.15;100106.94;7395109;19;20025;-93
2023/05/15 00:30:56;;;;;;;0.60;0.60;;;;;;;30.90;29.64;100103.06;7396870;19;20464;-91
2023/05/15 00:33:22;;;;;;;0.52;0.52;;;;;;;30.83;29.84;100108.97;7397712;19;20018;-91
2023/05/15 00:35:48;;;;;;;0.25;0.22;;;;;;;30.73;29.68;100111.91;7402250;19;20014;-91
2023/05/15 00:38:16;;;;;;;0.30;0.30;;;;;;;30.82;29.51;100107.47;7400939;19;20019;-91
2023/05/15 00:40:43;;;;;;;0.20;0.20;;;;;;;30.83;29.38;100108.97;7400006;19;20029;-90
2023/05/15 00:43:10;;;;;;;12.05;0.88;;;;;;;30.84;29.79;100111.22;7397964;19;20014;-90
2023/05/15 00:45:38;;;;;;;0.68;0.68;;;;;;;30.89;29.84;100104.44;7403102;19;20023;-89
2023/05/15 00:48:08;;;;;;;0.30;0.30;;;;;;;30.89;29.81;100107.31;7400013;19;20052;-91
2023/05/15 00:50:35;;;;;;;1.58;0.57;;;;;;;30.81;29.88;100111.72;7398248;19;20031;-91
2023/05/15 00:53:02;;;;;;;10.45;0.65;;;;;;;30.63;29.84;100116.91;7398100;19;20027;-90
2023/05/15 00:55:30;;;;;;;0.20;0.20;;;;;;;30.82;29.52;100113.97;7396120;19;20040;-91
2023/05/15 00:57:58;;;;;;;0.20;0.20;;;;;;;30.68;29.96;100115.84;7401377;19;20411;-90
2023/05/15 01:00:24;;;;;;;0.55;0.55;;;;;;;30.41;29.94;100118.19;7396908;19;20011;-89
2023/05/15 01:02:51;;;;;;;0.20;0.20;;;;;;;29.74;30.85;100109.63;7401374;19;20491;-90
2023/05/15 01:05:17;;;;;;;0.20;0.20;;;;;;;30.19;30.34;100114.41;7395941;19;20029;-92
2023/05/15 01:07:55;;;;;;;2.97;0.50;;;;;;;30.12;30.27;100118.22;7396833;19;20018;-92
2023/05/15 01:10:21;;;;;;;3.60;0.52;;;;;;;30.10;30.52;100120.97;7397214;19;20394;-91
2023/05/15 01:12:50;;;;;;;0.95;0.55;;;;;;;29.96;30.48;100112.03;7400929;19;20481;-92
2023/05/15 01:15:16;;;;;;;0.20;0.20;;;;;;;30.02;30.00;100108.13;7397768;19;20010;-92
2023/05/15 01:17:44;;;;;;;1.65;0.60;;;;;;;30.05;30.36;100115.50;7397589;19;20018;-92
2023/05/15 01:20:11;;;;;;;0.38;0.30;;;;;;;30.27;30.04;100111.41;7396251;19;20015;-92
2023/05/15 01:22:45;;;;;;;7.53;0.85;;;;;;;29.88;30.10;100110.69;7397721;19;20039;-91
2023/05/15 01:25:46;;;;;;;0.30;0.30;;;;;;;29.74;30.09;100113.25;7394044;19;20134;-91
2023/05/15 01:28:19;;;;;;;1.00;0.52;;;;;;;29.59;30.09;100116.38;7394139;19;20011;-91
2023/05/15 01:30:49;;;;;;;0.35;0.35;;;;;;;29.26;30.79;100114.53;7392672;19;20086;-91
2023/05/15 01:33:28;;;;;;;0.30;0.30;;;;;;;29.53;30.14;100121.66;7399044;19;20019;-91
2023/05/15 01:36:14;;;;;;;0.32;0.32;;;;;;;29.29;30.49;100119.06;7395687;19;20091;-91
2023/05/15 01:38:47;;;;;;;0.43;0.43;;;;;;;28.78;30.77;100125.81;7394505;19;20018;-91
2023/05/15 01:41:34;;;;;;;0.30;0.30;;;;;;;28.72;30.86;100131.06;7399266;19;20022;-91
2023/05/15 01:44:10;;;;;;;0.30;0.30;;;;;;;28.72;30.53;100120.34;7395137;19;20052;-91
2023/05/15 01:46:41;;;;;;;0.55;0.47;;;;;;;29.27;29.87;100128.25;7393032;19;20019;-91
2023/05/15 01:49:11;;;;;;;0.40;0.40;;;;;;;29.34;29.68;100127.38;7393076;19;20018;-92
2023/05/15 01:51:41;;;;;;;0.20;0.20;;;;;;;28.53;30.84;100126.72;7401057;19;20861;-91
2023/05/15 01:54:08;;;;;;;0.50;0.50;;;;;;;28.57;30.41;100134.13;7397335;19;20010;-92
2023/05/15 01:56:35;;;;;;;0.30;0.30;;;;;;;28.61;30.67;100138.09;7399656;19;20018;-93
2023/05/15 01:59:04;;;;;;;0.52;0.52;;;;;;;28.59;30.75;100122.84;7390800;19;20042;-91
2023/05/15 02:01:32;;;;;;;0.20;0.20;;;;;;;28.51;30.22;100132.28;7392597;19;20369;-91
2023/05/15 02:04:00;;;;;;;0.43;0.40;;;;;;;28.48;30.39;100118.38;7394111;19;20034;-92
2023/05/15 02:06:28;;;;;;;0.22;0.22;;;;;;;28.43;30.26;100123.03;7393446;19;20022;-91
2023/05/15 02:08:59;;;;;;;0.22;0.22;;;;;;;28.28;30.74;100126.13;7392656;19;20031;-91
2023/05/15 02:11:25;;;;;;;;;;;;;;;28.50;30.35;100130.75;7396273;19;20022;-91
2023/05/15 02:13:53;;;;;;;0.55;0.55;;;;;;;28.28;30.41;100140.44;7398923;19;19915;-91
2023/05/15 02:16:19;;;;;;;0.40;0.40;;;;;;;28.09;30.60;100134.56;7395664;19;20306;-91
2023/05/15 02:18:46;;;;;;;0.68;0.68;;;;;;;27.96;30.71;100143.47;7394987;19;20366;-91
2023/05/15 02:21:14;;;;;;;0.40;0.40;;;;;;;27.79;30.56;100147.09;7395690;19;20018;-91
2023/05/15 02:23:41;;;;;;;0.80;0.52;;;;;;;27.72;30.85;100145.06;7395862;19;20007;-90
2023/05/15 02:26:35;;;;;;;0.52;0.52;;;;;;;27.89;30.72;100144.34;7392141;19;20010;-91
2023/05/15 02:29:24;;;;;;;0.70;0.65;;;;;;;28.27;30.53;100143.88;7392062;19;20037;-90
2023/05/15 02:31:54;;;;;;;0.43;0.43;;;;;;;28.47;30.50;100140.56;7397118;19;20445;-91
2023/05/15 02:34:33;;;;;;;0.40;0.40;;;;;;;28.72;30.56;100133.94;7393060;19;20011;-90
2023/05/15 02:37:02;;;;;;;0.68;0.52;;;;;;;28.66;30.56;100142.03;7395685;19;20014;-90
2023/05/15 02:39:28;;;;;;;1.05;0.90;;;;;;;28.94;30.80;100147.13;7391038;19;20010;-90
2023/05/15 02:41:56;;;;;;;1.25;0.82;;;;;;;29.03;30.50;100152.16;7392023;19;20039;-90
2023/05/15 02:44:23;;;;;;;0.88;0.32;;;;;;;28.89;30.46;100146.06;7392609;19;20014;-90
2023/05/15 02:46:52;;;;;;;0.30;0.30;;;;;;;28.86;31.04;100149.38;7391745;19;20035;-91
2023/05/15 02:49:19;;;;;;;0.20;0.20;;;;;;;28.83;30.64;100148.47;7393310;19;20022;-91
2023/05/15 02:51:45;;;;;;;0.50;0.50;;;;;;;28.85;30.78;100150.72;7398565;19;20555;-91
2023/05/15 02:54:12;;;;;;;0.15;0.15;;;;;;;28.81;30.90;100159.75;7397431;19;20022;-91
2023/05/15 02:56:38;;;;;;;0.22;0.22;;;;;;;28.60;31.37;100153.78;7393652;19;20015;-90
2023/05/15 02:59:05;;;;;;;0.55;0.55;;;;;;;28.93;31.17;100151.38;7393245;19;20014;-91
2023/05/15 03:01:31;;;;;;;0.20;0.20;;;;;;;28.83;31.37;100151.31;7390129;19;20025;-91
2023/05/15 03:03:57;;;;;;;6.50;0.75;;;;;;;29.03;30.84;100155.03;7395632;19;20010;-91
2023/05/15 03:06:23;;;;;;;0.40;0.40;;;;;;;28.68;31.09;100156.53;7390756;19;20014;-90
2023/05/15 03:08:49;;;;;;;0.40;0.40;;;;;;;28.88;31.45;100167.50;7391730;19;20033;-90
2023/05/15 03:11:18;;;;;;;0.20;0.20;;;;;;;28.96;31.14;100162.41;7392298;19;20504;-91
2023/05/15 03:13:44;;;;;;;0.47;0.47;;;;;;;28.95;31.00;100166.63;7394366;19;20019;-91
2023/05/15 03:16:10;;;;;;;3.70;0.35;;;;;;;28.90;30.95;100170.53;7392151;19;20018;-91
2023/05/15 03:18:36;;;;;;;1.45;0.80;;;;;;;28.78;30.53;100163.06;7391512;19;20014;-91
2023/05/15 03:21:02;;;;;;;1.38;0.50;;;;;;;28.83;30.98;100170.63;7395739;19;20022;-91
2023/05/15 03:23:30;;;;;;;8.40;1.42;;;;;;;28.74;30.40;100162.75;7396977;19;20031;-90
2023/05/15 03:25:56;;;;;;;0.57;0.35;;;;;;;28.67;30.97;100172.97;7390560;19;20018;-91
2023/05/15 03:28:22;;;;;;;0.30;0.30;;;;;;;28.80;30.81;100169.75;7392059;19;20022;-91
2023/05/15 03:30:48;;;;;;;0.50;0.50;;;;;;;29.02;30.47;100176.47;7391026;19;20045;-91
2023/05/15 03:33:14;;;;;;;0.82;0.82;;;;;;;29.09;30.43;100170.59;7396244;19;20015;-91
2023/05/15 03:35:40;;;;;;;1.20;0.77;;;;;;;29.16;30.17;100174.75;7398433;19;20006;-90
2023/05/15 03:38:07;;;;;;;0.20;0.20;;;;;;;29.01;30.03;100169.22;7391100;19;20018;-91
2023/05/15 03:40:33;;;;;;;0.35;0.35;;;;;;;28.83;30.05;100171.41;7391980;19;20018;-91
2023/05/15 03:42:59;;;;;;;0.38;0.38;;;;;;;28.70;30.42;100168.91;7396824;19;20082;-93
2023/05/15 03:45:25;;;;;;;1.65;0.95;;;;;;;28.89;30.01;100174.75;7392823;19;20021;-92
2023/05/15 03:47:51;;;;;;;2.25;0.75;;;;;;;28.83;30.36;100167.75;7396260;19;20693;-92
2023/05/15 03:50:17;;;;;;;3.40;0.65;;;;;;;28.08;30.77;100173.16;7395707;19;20373;-93
2023/05/15 03:52:43;;;;;;;0.20;0.20;;;;;;;27.32;31.37;100166.63;7401979;19;20025;-92
2023/05/15 03:55:10;;;;;;;0.20;0.20;;;;;;;27.34;31.85;100163.94;7399210;19;20078;-92
2023/05/15 03:57:36;;;;;;;2.05;0.70;;;;;;;27.91;31.12;100172.38;7401263;19;20014;-92
2023/05/15 04:00:08;;;;;;;0.40;0.40;;;;;;;27.81;30.69;100165.81;7398147;19;20473;-92
2023/05/15 04:02:39;;;;;;;0.22;0.22;;;;;;;28.51;30.42;100163.81;7400200;19;20006;-91
2023/05/15 04:05:06;;;;;;;0.47;0.47;;;;;;;28.66;30.03;100170.69;7396280;19;20021;-92
2023/05/15 04:07:33;;;;;;;1.58;1.00;;;;;;;28.81;30.07;100161.88;7402063;19;20349;-92
2023/05/15 04:10:00;;;;;;;0.45;0.45;;;;;;;28.56;29.88;100167.00;7396905;19;20014;-92
2023/05/15 04:12:28;;;;;;;0.30;0.30;;;;;;;28.78;29.88;100165.94;7400105;19;20050;-92
2023/05/15 04:15:12;;;;;;;0.30;0.30;;;;;;;28.87;29.60;100168.09;7398659;19;20026;-92
2023/05/15 04:17:38;;;;;;;0.32;0.32;;;;;;;29.01;29.74;100163.47;7399191;19;20403;-92
2023/05/15 04:20:05;;;;;;;1.05;0.95;;;;;;;29.03;29.38;100172.25;7397769;19;20014;-92
2023/05/15 04:22:31;;;;;;;6.40;0.88;;;;;;;28.89;29.43;100174.00;7397941;19;20011;-92
2023/05/15 04:24:58;;;;;;;0.40;0.40;;;;;;;28.76;29.60;100166.53;7396860;19;20027;-92
2023/05/15 04:27:24;;;;;;;0.30;0.30;;;;;;;28.96;29.29;100167.38;7396734;19;20506;-92
2023/05/15 04:29:51;;;;;;;1.00;0.73;;;;;;;29.06;28.84;100171.06;7396749;19;20029;-92
2023/05/15 04:32:17;;;;;;;16.08;1.30;;;;;;;28.99;29.42;100184.16;7401300;19;20014;-91
2023/05/15 04:34:43;;;;;;;0.32;0.32;;;;;;;28.75;29.64;100181.47;7399305;19;20026;-92
2023/05/15 04:37:10;;;;;;;0.15;0.15;;;;;;;28.67;29.42;100187.31;7397328;19;20095;-88
2023/05/15 04:39:37;;;;;;;0.50;0.50;;;;;;;28.66;29.63;100185.03;7395440;19;20017;-84
2023/05/15 04:42:03;;;;;;;0.50;0.50;;;;;;;28.68;29.44;100193.78;7398197;19;20014;-91
2023/05/15 04:44:29;;;;;;;2.00;0.65;;;;;;;28.68;29.39;100188.06;7395335;19;20608;-89
2023/05/15 04:46:55;;;;;;;13.25;1.30;;;;;;;28.72;29.48;100186.28;7394699;19;20039;-89
2023/05/15 04:49:22;;;;;;;0.65;0.65;;;;;;;28.74;29.72;100197.16;7395160;19;20015;-89
2023/05/15 04:51:48;;;;;;;5.97;0.70;;;;;;;28.74;29.61;100197.16;7402963;19;20014;-89
2023/05/15 04:54:14;;;;;;;1.38;0.68;;;;;;;28.75;29.64;100198.66;7401334;19;20042;-88
2023/05/15 04:56:40;;;;;;;0.57;0.57;;;;;;;28.57;29.61;100194.31;7395682;19;20343;-88
2023/05/15 04:59:06;;;;;;;0.30;0.30;;;;;;;28.33;29.86;100201.66;7396806;19;20081;-88
2023/05/15 05:01:33;;;;;;;0.88;0.43;;;;;;;28.45;30.20;100205.53;7394631;19;20527;-88
2023/05/15 05:03:59;;;;;;;1.10;0.95;;;;;;;28.41;29.95;100208.81;7396646;19;20025;-88
2023/05/15 05:06:25;;;;;;;1.45;1.02;;;;;;;28.30;30.30;100209.38;7399748;19;20014;-88
2023/05/15 05:08:51;;;;;;;0.43;0.43;;;;;;;28.56;30.20;100205.03;7392908;19;20014;-88
2023/05/15 05:11:17;;;;;;;3.80;0.88;;;;;;;28.39;30.12;100202.91;7396921;19;20033;-87
2023/05/15 05:13:43;;;;;;;0.50;0.50;;;;;;;28.37;30.66;100204.88;7396207;19;20464;-88
2023/05/15 05:16:10;;;;;;;0.60;0.60;;;;;;;28.49;30.35;100200.91;7395191;19;20018;-88
2023/05/15 05:18:36;;;;;;;0.40;0.40;;;;;;;28.60;30.42;100208.25;7395255;19;20105;-88
2023/05/15 05:21:03;;;;;;;11.93;0.85;;;;;;;28.74;29.90;100214.38;7397685;19;20030;-88
2023/05/15 05:23:29;;;;;;;0.30;0.30;;;;;;;28.90;29.85;100215.66;7397492;19;20027;-88
2023/05/15 05:25:55;;;;;;;1.35;0.52;;;;;;;29.01;30.04;100220.84;7395041;19;20524;-88
2023/05/15 05:28:22;;;;;;;0.70;0.30;;;;;;;29.07;29.90;100218.44;7394647;19;20069;-88
2023/05/15 05:30:48;;;;;;;0.22;0.22;;;;;;;29.20;29.58;100220.97;7394946;19;20015;-88
2023/05/15 05:33:14;;;;;;;0.93;0.75;;;;;;;29.12;29.99;100220.28;7401427;19;20022;-88
2023/05/15 05:35:40;;;;;;;0.85;0.52;;;;;;;29.06;29.82;100216.94;7396996;19;20021;-88
2023/05/15 05:38:07;;;;;;;2.17;0.40;;;;;;;29.04;30.30;100220.41;7397341;19;20026;-88
2023/05/15 05:40:33;;;;;;;0.93;0.52;;;;;;;29.11;30.26;100221.63;7399998;19;20025;-88
2023/05/15 05:43:00;;;;;;;0.47;0.47;;;;;;;29.17;30.03;100228.63;7406283;19;20014;-88
2023/05/15 05:45:27;;;;;;;0.45;0.45;;;;;;;29.12;29.64;100223.16;7406457;19;20056;-87
2023/05/15 05:47:56;;;;;;;0.35;0.35;;;;;;;29.01;30.38;100232.31;7406795;19;20026;-89
2023/05/15 05:50:23;;;;;;;0.85;0.30;;;;;;;28.90;30.03;100232.84;7396382;19;20042;-88
2023/05/15 05:52:49;;;;;;;0.30;0.30;;;;;;;28.95;30.42;100234.69;7397207;19;20018;-83
2023/05/15 05:55:16;;;;;;;3.05;1.17;;;;;;;29.05;30.38;100232.63;7399206;19;20010;-88
2023/05/15 05:57:42;;;;;;;0.25;0.25;;;;;;;29.06;30.23;100229.16;7398235;19;20955;-87
2023/05/15 06:00:09;;;;;;;0.60;0.60;;;;;;;28.97;30.32;100227.03;7396618;19;20019;-88
2023/05/15 06:02:37;;;;;;;3.30;1.13;;;;;;;28.89;30.14;100228.50;7396397;19;20015;-87
2023/05/15 06:05:04;;;;;;;3.95;0.60;;;;;;;29.14;29.81;100226.19;7397211;19;20086;-87
2023/05/15 06:07:31;;;;;;;6.22;1.13;;;;;;;29.17;29.84;100230.78;7399542;19;20484;-87
2023/05/15 06:09:57;;;;;;;0.82;0.82;;;;;;;29.26;29.90;100238.66;7399473;19;20022;-87
2023/05/15 06:12:23;;;;;;;1.65;1.00;;;;;;;29.23;29.93;100243.50;7398004;19;20026;-88
2023/05/15 06:14:49;;;;;;;11.75;0.75;;;;;;;29.29;30.27;100240.31;7396139;19;20070;-87
2023/05/15 06:17:16;;;;;;;0.45;0.45;;;;;;;29.32;29.99;100244.88;7396037;19;20456;-85
2023/05/15 06:19:42;;;;;;;3.60;1.20;;;;;;;29.50;29.79;100245.56;7395722;19;20052;-84
2023/05/15 06:22:08;;;;;;;0.47;0.47;;;;;;;29.45;29.97;100250.22;7399975;19;20057;-86
2023/05/15 06:24:34;;;;;;;0.52;0.52;;;;;;;29.54;29.77;100249.47;7399857;19;20022;-87
2023/05/15 06:27:00;;;;;;;0.68;0.30;;;;;;;29.66;29.38;100256.19;7401165;19;20022;-85
2023/05/15 06:29:26;;;;;;;6.13;0.50;;;;;;;29.39;29.91;100249.72;7401774;19;20014;-86
2023/05/15 06:31:52;;;;;;;0.30;0.30;;;;;;;29.33;29.74;100252.13;7398441;19;20029;-86
2023/05/15 06:34:19;;;;;;;0.85;0.40;;;;;;;29.72;29.59;100256.63;7400450;19;20305;-87
2023/05/15 06:36:45;;;;;;;0.35;0.20;;;;;;;30.02;29.55;100251.75;7401352;19;20018;-87
2023/05/15 06:39:11;;;;;;;0.25;0.25;;;;;;;30.08;29.27;100255.06;7400904;19;20082;-86
2023/05/15 06:41:37;;;;;;;0.20;0.20;;;;;;;30.01;29.10;100255.97;7403533;19;20398;-86
2023/05/15 06:44:03;;;;;;;10.43;0.52;;;;;;;30.07;29.54;100250.69;7409575;19;20027;-86
2023/05/15 06:46:29;;;;;;;0.17;0.17;;;;;;;30.28;28.80;100256.59;7394457;19;20018;-86
2023/05/15 06:48:56;;;;;;;0.50;0.45;;;;;;;30.27;28.78;100257.97;7395142;19;20035;-86
2023/05/15 06:51:22;;;;;;;0.10;0.10;;;;;;;30.40;28.85;100261.19;7400271;19;20046;-86
2023/05/15 06:53:48;;;;;;;0.75;0.30;;;;;;;30.49;28.77;100248.91;7401267;19;20428;-86
2023/05/15 06:56:14;;;;;;;0.65;0.38;;;;;;;30.54;28.68;100247.06;7399592;19;20010;-86
2023/05/15 06:58:40;;;;;;;10.30;0.40;;;;;;;30.29;28.42;100247.38;7397168;19;20022;-87
2023/05/15 07:01:08;;;;;;;0.32;0.32;;;;;;;30.34;28.81;100251.34;7399565;19;20019;-85
2023/05/15 07:03:34;;;;;;;0.45;0.45;;;;;;;30.47;28.45;100253.75;7401083;19;20580;-87
2023/05/15 07:06:00;;;;;;;0.20;0.20;;;;;;;30.53;28.28;100260.72;7398771;19;20018;-86
2023/05/15 07:08:29;;;;;;;0.10;0.10;;;;;;;30.72;27.88;100271.44;7399776;19;20014;-87
2023/05/15 07:10:55;;;;;;;0.80;0.35;;;;;;;30.72;28.37;100265.69;7399587;19;20305;-86
2023/05/15 07:13:22;;;;;;;5.38;0.70;;;;;;;30.76;27.87;100271.72;7400312;19;20018;-86
2023/05/15 07:15:49;;;;;;;0.20;0.20;;;;;;;30.94;28.08;100269.47;7391152;19;20323;-87
2023/05/15 07:18:15;;;;;;;0.22;0.22;;;;;;;30.91;28.41;100270.66;7390796;19;20025;-85
2023/05/15 07:20:41;;;;;;;0.10;0.10;;;;;;;31.05;28.01;100274.59;7393937;19;20334;-85
2023/05/15 07:23:07;;;;;;;0.13;0.13;;;;;;;30.93;27.98;100280.19;7396093;19;20081;-86
2023/05/15 07:25:33;;;;;;;3.28;0.55;;;;;;;30.93;27.97;100280.19;7392901;19;20046;-86
2023/05/15 07:27:59;;;;;;;2.80;0.50;;;;;;;30.99;28.26;100272.00;7392348;19;20015;-86
2023/05/15 07:30:25;;;;;;;0.30;0.30;;;;;;;30.95;28.40;100277.47;7391257;19;20039;-87
2023/05/15 07:32:52;;;;;;;0.40;0.20;;;;;;;30.81;28.38;100282.19;7394089;19;20369;-86
2023/05/15 07:35:18;;;;;;;0.20;0.20;;;;;;;30.85;27.99;100285.34;7392124;19;20021;-86
2023/05/15 07:37:45;;;;;;;0.25;0.25;;;;;;;31.04;27.90;100291.09;7392026;19;20022;-85
2023/05/15 07:40:11;;;;;;;2.75;0.57;;;;;;;30.99;27.73;100295.03;7391709;19;20011;-85
2023/05/15 07:42:38;;;;;;;0.20;0.20;;;;;;;31.01;27.79;100288.69;7393334;19;20519;-84
2023/05/15 07:45:05;;;;;;;0.30;0.30;;;;;;;30.79;28.16;100290.66;7390263;19;20019;-85
2023/05/15 07:47:32;;;;;;;0.10;0.10;;;;;;;30.82;28.21;100292.31;7389619;19;20011;-87
2023/05/15 07:49:58;;;;;;;0.30;0.20;;;;;;;30.81;27.89;100284.28;7391264;19;20014;-86
2023/05/15 07:52:24;;;;;;;0.20;0.10;;;;;;;31.11;27.72;100290.16;7394924;19;20018;-87
2023/05/15 07:54:50;;;;;;;0.85;0.40;;;;;;;31.18;27.73;100279.84;7395136;19;20033;-86
2023/05/15 07:57:16;;;;;;;4.90;0.32;;;;;;;31.49;27.34;100271.28;7389976;19;20382;-87
2023/05/15 07:59:43;;;;;;;0.10;0.10;;;;;;;31.78;27.05;100275.50;7390908;19;20073;-86
2023/05/15 08:02:09;;;;;;;0.50;0.30;;;;;;;32.14;26.75;100277.28;7390332;19;20358;-86
2023/05/15 08:04:35;;;;;;;0.63;0.30;;;;;;;32.24;26.80;100288.75;7393563;19;20018;-87
2023/05/15 08:07:02;;;;;;;0.10;0.10;;;;;;;32.31;26.84;100279.91;7388313;19;20014;-87
2023/05/15 08:09:28;;;;;;;3.60;0.85;;;;;;;32.46;26.73;100290.25;7390115;19;20464;-88
2023/05/15 08:11:55;;;;;;;2.53;0.98;;;;;;;32.57;26.43;100293.19;7392000;19;20019;-87
2023/05/15 08:14:21;;;;;;;0.10;0.10;;;;;;;33.54;25.83;100290.88;7396294;19;20014;-86
2023/05/15 08:16:49;;;;;;;0.43;0.43;;;;;;;34.19;25.42;100284.78;7390943;19;20532;-87
2023/05/15 08:19:15;;;;;;;0.63;0.20;;;;;;;34.45;24.98;100288.47;7389335;19;20018;-88
2023/05/15 08:21:41;;;;;;;1.65;0.10;;;;;;;34.89;24.91;100296.13;7393785;19;20026;-88
2023/05/15 08:24:07;;;;;;;0.10;0.10;;;;;;;35.09;24.99;100299.44;7392969;19;20006;-88
2023/05/15 08:26:33;;;;;;;1.85;0.22;;;;;;;35.35;24.57;100298.75;7394273;19;20081;-87
2023/05/15 08:29:01;;;;;;;0.88;0.25;;;;;;;35.38;24.59;100300.38;7386859;19;20358;-86
2023/05/15 08:31:27;;;;;;;1.45;0.30;;;;;;;35.35;23.68;100295.84;7389274;19;20023;-86
2023/05/15 08:33:53;;;;;;;0.40;0.30;;;;;;;35.22;23.90;100307.41;7391419;19;20025;-87
2023/05/15 08:36:19;;;;;;;0.10;0.10;;;;;;;35.57;23.69;100308.69;7391113;19;20021;-87
2023/05/15 08:38:45;;;;;;;0.85;0.30;;;;;;;35.52;24.15;100303.31;7392735;19;20025;-87
2023/05/15 08:41:24;;;;;;;0.95;0.20;;;;;;;35.39;24.30;100307.66;7395926;19;20019;-87
2023/05/15 08:43:53;;;;;;;0.20;0.20;;;;;;;35.69;24.02;100306.44;7399217;19;20022;-87
2023/05/15 08:46:19;;;;;;;0.10;0.00;;;;;;;35.56;24.01;100298.47;7395445;19;20606;-87
2023/05/15 08:48:46;;;;;;;1.38;0.20;;;;;;;35.30;23.90;100302.81;7396459;19;20086;-86
2023/05/15 08:51:13;;;;;;;0.10;0.08;;;;;;;35.26;23.65;100299.69;7401237;19;20018;-86
2023/05/15 08:53:39;;;;;;;5.72;0.30;;;;;;;35.32;23.53;100302.94;7396638;19;20496;-87
2023/05/15 08:56:06;;;;;;;6.13;0.35;;;;;;;35.56;23.80;100301.38;7397683;19;20360;-87
2023/05/15 08:58:32;;;;;;;0.88;0.13;;;;;;;35.74;23.51;100296.56;7395979;19;20504;-86
2023/05/15 09:00:59;;;;;;;0.15;0.15;;;;;;;36.18;22.44;100292.41;7395478;19;20468;-87
2023/05/15 09:03:26;;;;;;;0.10;0.00;;;;;;;36.38;22.37;100286.88;7401855;19;20355;-87
2023/05/15 09:05:53;;;;;;;0.52;0.47;;;;;;;36.45;22.08;100282.91;7396640;19;20410;-86
2023/05/15 09:08:22;;;;;;;0.28;0.10;;;;;;;36.38;21.24;100281.06;7400794;19;20049;-86
2023/05/15 09:10:49;;;;;;;0.15;0.10;;;;;;;36.48;21.78;100287.41;7400106;19;20030;-88
2023/05/15 09:13:16;;;;;;;1.27;0.10;;;;;;;36.47;22.26;100288.81;7401472;19;20021;-86
2023/05/15 09:15:45;;;;;;;0.10;0.00;;;;;;;36.80;21.59;100297.72;7397583;19;20441;-87
2023/05/15 09:18:13;;;;;;;0.20;0.20;;;;;;;36.77;21.74;100304.84;7397257;19;20399;-86
2023/05/15 09:20:39;;;;;;;0.20;0.13;;;;;;;37.09;21.41;100299.88;7395359;19;20575;-86
2023/05/15 09:23:24;;;;;;;4.03;0.20;;;;;;;36.77;21.04;100301.19;7398508;19;20022;-85
2023/05/15 09:25:55;;;;;;;0.20;0.20;;;;;;;36.42;21.38;100311.06;7393895;19;20010;-87
2023/05/15 09:28:24;;;;;;;0.28;0.28;;;;;;;35.96;21.38;100311.53;7392702;19;20609;-86
2023/05/15 09:31:00;;;;;;;0.32;0.15;;;;;;;36.00;21.19;100310.97;7396264;19;20342;-89
2023/05/15 09:33:37;;;;;;;0.45;0.30;;;;;;;35.87;21.17;100320.41;7401369;19;20014;-90
2023/05/15 09:36:06;;;;;;;0.10;0.10;;;;;;;36.06;20.98;100320.03;7396979;19;20018;-87
2023/05/15 09:38:33;;;;;;;0.30;0.05;;;;;;;36.56;20.79;100322.63;7395231;19;20029;-87
2023/05/15 09:41:04;;;;;;;0.32;0.30;;;;;;;36.52;21.10;100313.72;7395518;19;20349;-86
2023/05/15 09:43:37;;;;;;;0.10;0.00;;;;;;;36.15;20.80;100319.03;7400612;19;20018;-87
2023/05/15 09:46:05;;;;;;;0.38;0.38;;;;;;;36.07;21.52;100315.72;7393618;19;20018;-85
2023/05/15 09:48:31;;;;;;;0.10;0.10;;;;;;;36.26;21.85;100318.16;7395750;19;20018;-83
2023/05/15 09:50:58;;;;;;;0.32;0.17;;;;;;;36.11;21.55;100313.78;7390869;19;20018;-85
2023/05/15 09:53:24;;;;;;;0.10;0.10;;;;;;;35.71;22.11;100321.03;7397266;19;20015;-86
2023/05/15 09:55:52;;;;;;;1.45;0.25;;;;;;;35.68;21.87;100316.53;7399808;19;20052;-84
2023/05/15 09:58:18;;;;;;;0.10;0.10;;;;;;;35.70;22.15;100318.78;7393259;19;20015;-84
2023/05/15 10:00:46;;;;;;;0.10;0.10;;;;;;;34.40;23.21;100324.34;7395308;19;20023;-87
2023/05/15 10:09:18;;;;;;;3.35;0.32;;;;;;;34.05;23.28;100333.06;7394833;19;20010;-81
2023/05/15 10:41:21;;;;;;;0.40;0.20;;;;;;;34.56;22.48;100321.69;7396617;19;20454;-84
2023/05/15 10:44:10;;;;;;;0.10;0.10;;;;;;;34.81;22.74;100325.34;7396652;19;20022;-87
2023/05/15 10:46:50;;;;;;;0.20;0.20;;;;;;;35.10;22.21;100327.00;7388809;19;20027;-85
2023/05/15 11:39:10;;;;;;;0.00;0.00;;;;;;;35.82;21.25;100344.78;7394483;19;20415;-80
2023/05/15 11:41:38;;;;;;;0.30;0.10;;;;;;;35.92;20.78;100346.09;7391812;19;20013;-80
2023/05/15 11:44:04;;;;;;;0.15;0.08;;;;;;;35.99;21.39;100347.19;7391808;19;20499;-79
2023/05/15 11:46:31;;;;;;;0.10;0.00;;;;;;;36.80;21.39;100349.22;7386969;19;20018;-80
2023/05/15 11:48:58;;;;;;;0.10;0.00;;;;;;;37.23;21.29;100339.06;7384910;19;20023;-80
2023/05/15 11:51:26;;;;;;;0.10;0.10;;;;;;;36.99;21.50;100349.50;7387963;19;20018;-80
2023/05/15 11:53:54;;;;;;;0.05;0.05;;;;;;;37.12;20.71;100357.41;7392036;19;20006;-80
2023/05/15 11:56:29;;;;;;;0.45;0.10;;;;;;;36.79;20.96;100354.31;7388052;19;20791;-80
2023/05/15 11:58:58;;;;;;;0.70;0.28;;;;;;;36.86;20.23;100353.19;7388727;19;20049;-80
2023/05/15 12:01:24;;;;;;;0.93;0.05;;;;;;;36.65;20.70;100350.69;7388084;19;20029;-80
2023/05/15 12:03:52;;;;;;;0.20;0.10;;;;;;;36.33;20.27;100354.78;7389911;19;20488;-80
2023/05/15 12:06:19;;;;;;;3.30;0.20;;;;;;;35.95;21.13;100355.66;7390620;19;20088;-79
2023/05/15 12:08:51;;;;;;;2.40;0.10;;;;;;;36.23;21.09;100360.09;7398040;19;20014;-81
2023/05/15 12:11:23;;;;;;;0.10;0.00;;;;;;;37.34;20.14;100348.28;7392678;19;20014;-81
2023/05/15 12:13:52;;;;;;;0.10;0.10;;;;;;;38.03;20.16;100347.22;7404877;19;20017;-81
2023/05/15 12:16:23;;;;;;;0.28;0.20;;;;;;;37.65;20.19;100351.22;7402482;19;20043;-81
2023/05/15 12:18:50;;;;;;;0.00;0.00;;;;;;;37.42;20.13;100337.06;7402409;19;20042;-81
2023/05/15 12:21:16;;;;;;;0.10;0.10;;;;;;;37.07;20.26;100343.34;7399696;19;20050;-82
2023/05/15 12:23:52;;;;;;;0.00;0.00;;;;;;;38.06;20.39;100345.13;7398079;19;20018;-82
2023/05/15 12:26:23;;;;;;;0.20;0.20;;;;;;;38.20;20.63;100345.78;7392697;19;20019;-83
2023/05/15 12:28:50;;;;;;;0.00;0.00;;;;;;;38.21;19.94;100350.16;7394004;19;20025;-81
2023/05/15 12:31:19;;;;;;;1.95;0.10;;;;;;;37.67;19.44;100354.22;7398482;19;20018;-82
2023/05/15 12:33:46;;;;;;;4.25;0.28;;;;;;;37.47;19.86;100356.22;7398522;19;20331;-82
2023/05/15 12:36:12;;;;;;;0.38;0.20;;;;;;;37.18;20.16;100357.72;7395019;19;20021;-81
2023/05/15 12:38:39;;;;;;;0.30;0.10;;;;;;;37.37;20.53;100352.81;7394256;19;20019;-81
2023/05/15 12:41:12;;;;;;;1.13;0.10;;;;;;;37.48;20.05;100351.88;7392167;19;20023;-81
2023/05/15 12:43:40;;;;;;;0.10;0.10;;;;;;;32.98;24.00;100359.38;7395275;19;20070;-81
2023/05/15 12:46:06;;;;;;;0.47;0.25;;;;;;;37.36;20.60;100357.88;7389368;19;20460;-82
2023/05/15 12:48:35;;;;;;;0.20;0.00;;;;;;;37.32;20.97;100354.75;7391435;19;20018;-81
2023/05/15 12:51:08;;;;;;;0.20;0.10;;;;;;;37.06;20.32;100360.03;7394820;19;20011;-81
2023/05/15 12:53:35;;;;;;;0.40;0.03;;;;;;;37.67;21.11;100354.22;7394418;19;20027;-82